Time;durP1;ratioP1;P1;durP2;ratioP2;P2;SDS_P1;SDS_P2;PMS_P1;PMS_P2;Temp;Humidity;BMP_temperature;BMP_pressure;BME280_temperature;BME280_humidity;BME280_pressure;Samples;Min_cycle;Max_cycle;Signal;HPM_P1;HPM_P2
2021/12/26 00:02:10;;;;;;;11.07;4.88;;;0.00;99.90;;;;;;5032011;28;20031;-57
2021/12/26 00:04:35;;;;;;;10.85;4.80;;;-0.10;99.90;;;;;;5030675;28;20021;-52
2021/12/26 00:07:02;;;;;;;13.35;4.72;;;-0.10;99.90;;;;;;5027120;28;20028;-55
2021/12/26 00:09:27;;;;;;;11.82;5.25;;;0.00;99.90;;;;;;5012126;28;20022;-55
2021/12/26 00:11:53;;;;;;;10.82;4.63;;;0.20;99.90;;;;;;5022725;28;20026;-56
2021/12/26 00:14:20;;;;;;;11.18;4.97;;;0.00;99.90;;;;;;5032087;28;20063;-54
2021/12/26 00:16:46;;;;;;;8.88;4.85;;;0.10;99.90;;;;;;5021402;28;20022;-53
2021/12/26 00:19:12;;;;;;;13.25;4.55;;;-0.10;99.90;;;;;;5012563;28;20535;-56
2021/12/26 00:21:38;;;;;;;8.10;4.45;;;0.10;99.90;;;;;;5012644;28;20026;-56
2021/12/26 00:24:04;;;;;;;13.65;5.10;;;0.20;99.90;;;;;;5012871;28;20117;-55
2021/12/26 00:26:32;;;;;;;11.05;5.40;;;0.20;99.90;;;;;;5012166;28;20026;-53
2021/12/26 00:28:59;;;;;;;8.82;4.95;;;0.10;99.90;;;;;;5012149;28;20129;-58
2021/12/26 00:31:24;;;;;;;10.48;5.15;;;0.40;99.90;;;;;;5013534;28;20030;-57
2021/12/26 00:33:50;;;;;;;10.10;5.18;;;0.30;99.90;;;;;;5013343;28;20056;-56
2021/12/26 00:36:15;;;;;;;8.82;4.63;;;0.30;99.90;;;;;;5012654;28;20026;-57
2021/12/26 00:38:41;;;;;;;13.02;4.88;;;0.20;99.90;;;;;;5013708;28;20022;-58
2021/12/26 00:41:07;;;;;;;11.93;5.13;;;0.10;99.90;;;;;;5012213;28;20118;-57
2021/12/26 00:43:33;;;;;;;12.50;5.65;;;0.10;99.90;;;;;;5012107;28;20029;-57
2021/12/26 00:45:58;;;;;;;9.27;4.82;;;0.10;99.90;;;;;;5012539;28;20053;-56
2021/12/26 00:48:24;;;;;;;9.18;4.90;;;0.10;99.90;;;;;;5013571;28;20109;-56
2021/12/26 00:50:50;;;;;;;8.00;4.93;;;-0.10;99.90;;;;;;5013295;28;20131;-57
2021/12/26 00:53:16;;;;;;;8.80;4.72;;;0.00;99.90;;;;;;5012202;28;20022;-57
2021/12/26 00:55:42;;;;;;;7.88;4.43;;;0.40;99.90;;;;;;5013484;28;20101;-57
2021/12/26 00:58:08;;;;;;;9.73;4.75;;;0.50;99.90;;;;;;5011936;28;20026;-57
2021/12/26 01:00:42;;;;;;;9.77;5.80;;;0.70;99.90;;;;;;5012303;28;20022;-57
2021/12/26 01:03:09;;;;;;;7.63;4.80;;;0.60;99.90;;;;;;5013502;28;20057;-55
2021/12/26 01:05:37;;;;;;;10.00;4.90;;;0.70;99.90;;;;;;5012512;28;20122;-57
2021/12/26 01:08:06;;;;;;;9.82;4.88;;;0.40;99.90;;;;;;5013227;28;20025;-55
2021/12/26 01:10:37;;;;;;;10.93;5.05;;;0.50;99.90;;;;;;5012032;28;20034;-54
2021/12/26 01:13:14;;;;;;;10.25;5.13;;;0.60;99.90;;;;;;5013065;28;20383;-57
2021/12/26 01:15:42;;;;;;;10.55;4.90;;;0.70;99.90;;;;;;5013239;28;20469;-55
2021/12/26 01:18:07;;;;;;;7.97;4.88;;;0.30;99.90;;;;;;5012195;28;20032;-57
2021/12/26 01:20:51;;;;;;;11.13;4.97;;;0.30;99.90;;;;;;5013045;28;20097;-56
2021/12/26 01:23:18;;;;;;;11.00;4.82;;;0.20;99.90;;;;;;5028211;28;20030;-56
2021/12/26 01:25:45;;;;;;;9.90;4.85;;;-0.10;99.90;;;;;;5014273;28;20040;-56
2021/12/26 01:28:11;;;;;;;8.38;4.95;;;-0.20;99.90;;;;;;5016208;28;20036;-55
2021/12/26 01:30:39;;;;;;;9.43;4.90;;;-0.20;99.90;;;;;;5015924;28;20021;-59
2021/12/26 01:33:07;;;;;;;11.75;5.40;;;-0.10;99.90;;;;;;5016672;28;20045;-59
2021/12/26 01:35:33;;;;;;;9.63;5.53;;;0.00;99.90;;;;;;5016381;28;20068;-58
2021/12/26 01:37:58;;;;;;;12.02;5.82;;;-0.10;99.90;;;;;;5031609;28;20029;-59
2021/12/26 01:40:24;;;;;;;8.57;4.38;;;0.00;99.90;;;;;;5014996;28;20534;-56
2021/12/26 01:42:51;;;;;;;11.18;5.45;;;-0.10;99.90;;;;;;5016213;28;20029;-57
2021/12/26 01:45:17;;;;;;;9.18;4.95;;;0.00;99.90;;;;;;5014953;28;20080;-59
2021/12/26 01:47:46;;;;;;;10.60;5.25;;;0.30;99.90;;;;;;5015241;28;20026;-59
2021/12/26 01:50:12;;;;;;;11.70;5.57;;;0.40;99.90;;;;;;5015079;28;20044;-59
2021/12/26 01:52:38;;;;;;;8.88;4.80;;;0.40;99.90;;;;;;5015087;28;20033;-59
2021/12/26 01:57:50;;;;;;;10.52;5.03;;;0.30;99.90;;;;;;5016386;28;20040;-55
2021/12/26 02:00:19;;;;;;;11.02;5.43;;;0.30;99.90;;;;;;5014802;28;20029;-56
2021/12/26 02:02:45;;;;;;;11.35;4.90;;;0.30;99.90;;;;;;5031112;28;20097;-58
2021/12/26 02:05:11;;;;;;;10.00;5.00;;;0.10;99.90;;;;;;5016027;28;20026;-57
2021/12/26 02:07:36;;;;;;;10.85;4.90;;;0.10;99.90;;;;;;5016148;28;20032;-58
2021/12/26 02:10:03;;;;;;;7.78;4.68;;;0.30;99.90;;;;;;5030972;28;20026;-54
2021/12/26 02:12:29;;;;;;;11.93;5.97;;;0.30;99.90;;;;;;5031305;28;20033;-57
2021/12/26 02:14:55;;;;;;;12.82;5.88;;;0.30;99.90;;;;;;5015710;28;20026;-57
2021/12/26 02:17:20;;;;;;;14.63;6.47;;;0.30;99.90;;;;;;5030712;28;20080;-57
2021/12/26 02:19:49;;;;;;;11.77;5.45;;;0.10;99.90;;;;;;5015483;28;20022;-58
2021/12/26 02:22:19;;;;;;;8.93;4.80;;;0.00;99.90;;;;;;5015437;28;20022;-58
2021/12/26 02:27:32;;;;;;;;;;;0.10;99.90;;;;;;5016023;28;20500;-59
2021/12/26 02:30:09;;;;;;;9.35;4.10;;;0.20;99.90;;;;;;5015334;28;19988;-57
2021/12/26 02:32:35;;;;;;;8.55;4.53;;;0.20;99.90;;;;;;5014034;28;20044;-57
2021/12/26 02:35:02;;;;;;;8.68;4.47;;;0.50;99.90;;;;;;5014280;28;20033;-58
2021/12/26 02:37:28;;;;;;;11.43;5.03;;;0.50;99.90;;;;;;5014549;28;20113;-60
2021/12/26 02:39:53;;;;;;;12.13;5.03;;;0.40;99.90;;;;;;5015177;28;20022;-58
2021/12/26 02:42:21;;;;;;;10.77;4.75;;;0.50;99.90;;;;;;5015253;28;20060;-59
2021/12/26 02:44:47;;;;;;;9.20;4.68;;;0.50;99.90;;;;;;5015101;28;20022;-58
2021/12/26 02:47:28;;;;;;;12.70;5.85;;;0.80;99.90;;;;;;5015043;28;20069;-57
2021/12/26 02:49:58;;;;;;;10.30;4.90;;;0.50;99.90;;;;;;5031282;28;20025;-59
2021/12/26 02:52:24;;;;;;;8.15;4.45;;;0.60;99.90;;;;;;5015259;28;20030;-58
2021/12/26 02:54:50;;;;;;;10.57;5.75;;;0.80;99.90;;;;;;5030094;28;20025;-59
2021/12/26 02:57:15;;;;;;;10.15;4.32;;;0.70;99.90;;;;;;5013437;28;20037;-57
2021/12/26 02:59:41;;;;;;;9.07;4.72;;;0.80;99.90;;;;;;5015058;28;20029;-59
2021/12/26 03:02:06;;;;;;;9.32;4.53;;;0.50;99.90;;;;;;5014711;28;20108;-57
2021/12/26 03:04:32;;;;;;;9.07;4.70;;;0.50;99.90;;;;;;5013530;28;20026;-57
2021/12/26 03:07:03;;;;;;;10.00;4.28;;;0.70;99.90;;;;;;5014838;28;20047;-59
2021/12/26 03:09:42;;;;;;;9.75;4.25;;;0.80;99.90;;;;;;5029865;28;20022;-56
2021/12/26 03:12:21;;;;;;;9.80;4.47;;;0.90;99.90;;;;;;5014629;28;20044;-59
2021/12/26 03:14:46;;;;;;;9.98;4.68;;;0.60;99.90;;;;;;5014604;28;20034;-59
2021/12/26 03:17:13;;;;;;;7.95;4.25;;;0.70;99.90;;;;;;5029653;28;20024;-58
2021/12/26 03:19:38;;;;;;;9.05;4.80;;;0.70;99.90;;;;;;5013180;28;20022;-59
2021/12/26 03:22:04;;;;;;;7.30;4.68;;;0.80;99.90;;;;;;5014386;28;20029;-57
2021/12/26 03:24:32;;;;;;;10.65;5.15;;;0.60;99.90;;;;;;5013043;28;20026;-58
2021/12/26 03:26:59;;;;;;;8.07;4.53;;;0.60;99.90;;;;;;5012992;28;20052;-58
2021/12/26 03:29:25;;;;;;;11.40;4.80;;;0.70;99.90;;;;;;5013415;28;20030;-56
2021/12/26 03:31:51;;;;;;;9.80;5.03;;;0.60;99.90;;;;;;5014255;28;20029;-59
2021/12/26 03:34:16;;;;;;;9.88;4.50;;;0.60;99.90;;;;;;5029582;28;20025;-57
2021/12/26 03:36:42;;;;;;;10.90;4.88;;;0.60;99.90;;;;;;5014016;28;20026;-56
2021/12/26 03:39:08;;;;;;;12.05;4.78;;;0.50;99.90;;;;;;5029640;28;20116;-56
2021/12/26 03:41:34;;;;;;;10.57;4.57;;;0.60;99.90;;;;;;5014316;28;20029;-55
2021/12/26 03:44:00;;;;;;;8.00;4.53;;;0.30;99.90;;;;;;5013999;28;20021;-57
2021/12/26 03:46:26;;;;;;;9.95;5.32;;;0.50;99.90;;;;;;5014484;28;20076;-59
2021/12/26 03:48:52;;;;;;;10.35;4.78;;;0.30;99.90;;;;;;5012166;28;20026;-60
2021/12/26 03:51:19;;;;;;;12.18;4.38;;;0.30;99.90;;;;;;5013361;28;20040;-57
2021/12/26 03:53:44;;;;;;;8.90;4.07;;;0.30;99.90;;;;;;5029029;28;20018;-60
2021/12/26 03:56:10;;;;;;;9.68;4.63;;;0.40;99.90;;;;;;5013831;28;20072;-60
2021/12/26 03:58:37;;;;;;;11.32;5.00;;;0.50;99.90;;;;;;5012675;28;20033;-59
2021/12/26 04:01:02;;;;;;;8.70;4.35;;;0.50;99.90;;;;;;5013828;28;20018;-59
2021/12/26 04:03:28;;;;;;;12.38;5.05;;;0.60;99.90;;;;;;5013773;28;20048;-59
2021/12/26 04:05:54;;;;;;;8.77;5.10;;;0.70;99.90;;;;;;5013644;28;20029;-59
2021/12/26 04:08:19;;;;;;;7.10;3.78;;;0.80;99.90;;;;;;5013735;28;20029;-59
2021/12/26 04:10:45;;;;;;;8.05;4.72;;;0.80;99.90;;;;;;5013718;28;20030;-59
2021/12/26 04:13:11;;;;;;;8.45;4.45;;;0.80;99.90;;;;;;5013643;28;20076;-58
2021/12/26 04:15:36;;;;;;;8.90;4.32;;;0.90;99.90;;;;;;5013890;28;20023;-55
2021/12/26 04:18:03;;;;;;;8.75;4.85;;;0.90;99.90;;;;;;5012681;28;20022;-60
2021/12/26 04:20:29;;;;;;;9.85;5.05;;;0.90;99.90;;;;;;5013448;28;20025;-59
2021/12/26 04:22:55;;;;;;;10.60;4.47;;;0.50;99.90;;;;;;5028781;28;20026;-59
2021/12/26 04:25:22;;;;;;;9.25;4.40;;;0.40;99.90;;;;;;5013257;28;20030;-59
2021/12/26 04:27:48;;;;;;;10.57;5.35;;;0.40;99.90;;;;;;5012491;28;20048;-59
2021/12/26 04:30:14;;;;;;;9.35;4.60;;;0.40;99.90;;;;;;5012353;28;20476;-59
2021/12/26 04:32:40;;;;;;;9.05;4.80;;;0.50;99.90;;;;;;5013443;28;20030;-60
2021/12/26 04:35:07;;;;;;;9.65;4.97;;;0.50;99.90;;;;;;5012217;28;20022;-58
2021/12/26 04:37:34;;;;;;;11.00;4.72;;;0.60;99.90;;;;;;5012528;28;20022;-57
2021/12/26 04:40:01;;;;;;;10.77;4.47;;;0.80;99.90;;;;;;5013633;28;20018;-58
2021/12/26 04:42:26;;;;;;;10.65;4.97;;;0.80;99.90;;;;;;5013609;28;20022;-58
2021/12/26 04:44:53;;;;;;;10.75;4.57;;;0.70;99.90;;;;;;5013376;28;20019;-58
2021/12/26 04:47:19;;;;;;;9.45;5.20;;;0.30;99.90;;;;;;5013382;28;20045;-59
2021/12/26 04:49:45;;;;;;;10.90;5.00;;;0.30;99.90;;;;;;5029061;28;20108;-57
2021/12/26 04:52:10;;;;;;;9.23;4.78;;;0.00;99.90;;;;;;5028285;28;20116;-57
2021/12/26 04:54:36;;;;;;;10.52;5.38;;;-0.20;99.90;;;;;;5012793;28;20029;-58
2021/12/26 04:57:02;;;;;;;12.40;5.60;;;-0.10;99.90;;;;;;5013496;28;20025;-59
2021/12/26 04:59:28;;;;;;;9.90;5.25;;;0.00;99.90;;;;;;5013057;28;20026;-59
2021/12/26 05:01:54;;;;;;;10.65;5.93;;;0.00;99.90;;;;;;5014862;28;20060;-60
2021/12/26 05:04:20;;;;;;;9.70;6.40;;;0.10;99.90;;;;;;5016633;28;20026;-59
2021/12/26 05:06:47;;;;;;;12.68;5.60;;;0.20;99.90;;;;;;5016882;28;20022;-60
2021/12/26 05:09:14;;;;;;;10.57;5.10;;;0.00;99.90;;;;;;5016967;28;20033;-60
2021/12/26 05:11:40;;;;;;;14.48;5.53;;;0.00;99.90;;;;;;5017068;28;20173;-60
2021/12/26 05:14:06;;;;;;;9.30;5.03;;;0.00;99.90;;;;;;5016687;28;20048;-57
2021/12/26 05:16:32;;;;;;;11.02;6.05;;;-0.10;99.90;;;;;;5016684;28;20025;-60
2021/12/26 05:18:58;;;;;;;12.20;5.20;;;-0.20;99.90;;;;;;5017043;28;20025;-60
2021/12/26 05:21:23;;;;;;;11.32;5.53;;;-0.10;99.90;;;;;;5016662;28;20029;-58
2021/12/26 05:23:49;;;;;;;13.90;5.15;;;0.10;99.90;;;;;;5016900;28;20026;-59
2021/12/26 05:26:15;;;;;;;11.30;4.88;;;-0.20;99.90;;;;;;5031673;28;20033;-58
2021/12/26 05:28:40;;;;;;;9.55;5.60;;;-0.30;99.90;;;;;;5032630;28;20080;-58
2021/12/26 05:31:06;;;;;;;12.38;5.45;;;-0.40;99.90;;;;;;5016777;28;20381;-59
2021/12/26 05:33:32;;;;;;;11.80;4.97;;;-0.50;99.90;;;;;;5015146;28;20089;-59
2021/12/26 05:35:59;;;;;;;12.57;5.43;;;-0.40;99.90;;;;;;5016513;28;20026;-59
2021/12/26 05:38:26;;;;;;;10.77;4.88;;;-0.30;99.90;;;;;;5015141;28;20022;-55
2021/12/26 05:40:52;;;;;;;12.32;5.63;;;-0.10;99.90;;;;;;5031550;28;20113;-57
2021/12/26 05:43:18;;;;;;;12.63;5.55;;;0.00;99.90;;;;;;5016244;28;20057;-56
2021/12/26 05:45:44;;;;;;;14.00;5.93;;;0.20;99.90;;;;;;5014885;28;20088;-57
2021/12/26 05:48:09;;;;;;;8.73;4.60;;;0.30;99.90;;;;;;5031762;28;20076;-55
2021/12/26 05:50:35;;;;;;;10.35;5.55;;;0.30;99.90;;;;;;5014889;28;20076;-55
2021/12/26 05:53:00;;;;;;;10.20;5.40;;;0.20;99.90;;;;;;5015937;28;20042;-56
2021/12/26 05:55:26;;;;;;;9.93;5.40;;;0.00;99.90;;;;;;5032035;28;20076;-58
2021/12/26 05:57:52;;;;;;;11.48;5.22;;;0.00;99.90;;;;;;5014730;28;20088;-58
2021/12/26 06:00:19;;;;;;;9.15;5.05;;;0.20;99.90;;;;;;5031417;28;20025;-56
2021/12/26 06:02:46;;;;;;;12.30;5.10;;;0.30;99.90;;;;;;5014648;28;20049;-57
2021/12/26 06:05:11;;;;;;;9.18;4.28;;;0.40;99.90;;;;;;5014931;28;20029;-55
2021/12/26 06:07:37;;;;;;;11.77;5.13;;;0.30;99.90;;;;;;5015751;28;20506;-57
2021/12/26 06:10:07;;;;;;;7.05;4.15;;;0.20;99.90;;;;;;5014592;28;20111;-54
2021/12/26 06:12:34;;;;;;;9.75;4.55;;;0.00;99.90;;;;;;5013843;28;20022;-57
2021/12/26 06:14:59;;;;;;;13.75;5.07;;;0.00;99.90;;;;;;5015676;28;20106;-58
2021/12/26 06:17:25;;;;;;;10.98;5.45;;;0.00;99.90;;;;;;5014274;28;20109;-59
2021/12/26 06:19:50;;;;;;;12.45;5.38;;;0.00;99.90;;;;;;5030762;28;20024;-56
2021/12/26 06:22:16;;;;;;;11.55;6.18;;;-0.10;99.90;;;;;;5014192;28;20069;-55
2021/12/26 06:24:42;;;;;;;8.73;4.63;;;-0.20;99.90;;;;;;5015414;28;20025;-54
2021/12/26 06:27:08;;;;;;;12.57;6.03;;;-0.30;99.90;;;;;;5015357;28;20034;-55
2021/12/26 06:29:34;;;;;;;12.02;5.45;;;-0.30;99.90;;;;;;5015716;28;20030;-55
2021/12/26 06:32:00;;;;;;;9.38;5.15;;;-0.30;99.90;;;;;;5030891;28;20049;-59
2021/12/26 06:34:25;;;;;;;13.27;5.22;;;-0.20;99.90;;;;;;5015216;28;20040;-56
2021/12/26 06:36:51;;;;;;;10.07;4.65;;;0.00;99.90;;;;;;5015108;28;20025;-58
2021/12/26 06:39:18;;;;;;;10.38;4.82;;;0.20;99.90;;;;;;5013950;28;20022;-54
2021/12/26 06:41:43;;;;;;;10.32;4.50;;;0.40;99.90;;;;;;5015090;28;20389;-55
2021/12/26 06:44:09;;;;;;;13.65;5.47;;;0.40;99.90;;;;;;5015005;28;20030;-59
2021/12/26 06:46:36;;;;;;;10.48;5.15;;;0.50;99.90;;;;;;5014966;28;20105;-57
2021/12/26 06:49:04;;;;;;;8.05;4.32;;;0.40;99.90;;;;;;5015001;28;20026;-59
2021/12/26 06:51:30;;;;;;;12.13;5.50;;;0.20;99.90;;;;;;5015197;28;20099;-56
2021/12/26 06:53:56;;;;;;;10.75;5.10;;;0.40;99.90;;;;;;5014572;28;20188;-57
2021/12/26 06:56:21;;;;;;;11.55;4.78;;;0.60;99.90;;;;;;5013901;28;20112;-57
2021/12/26 06:58:47;;;;;;;9.68;4.65;;;0.60;99.90;;;;;;5013902;28;20025;-58
2021/12/26 07:01:12;;;;;;;8.43;4.85;;;0.40;99.90;;;;;;5015138;28;20029;-56
2021/12/26 07:03:38;;;;;;;10.15;5.53;;;0.40;99.90;;;;;;5014931;28;20370;-59
2021/12/26 07:06:04;;;;;;;11.30;5.28;;;0.30;99.90;;;;;;5014640;28;20102;-58
2021/12/26 07:08:30;;;;;;;12.07;5.70;;;0.30;99.90;;;;;;5030212;28;20034;-57
2021/12/26 07:10:56;;;;;;;12.43;6.57;;;0.10;99.90;;;;;;5015106;28;20112;-57
2021/12/26 07:13:21;;;;;;;11.30;5.72;;;0.00;99.90;;;;;;5014160;28;20076;-57
2021/12/26 07:15:47;;;;;;;15.73;6.75;;;-0.10;99.90;;;;;;5014524;28;20030;-59
2021/12/26 07:18:13;;;;;;;12.30;5.80;;;-0.20;99.90;;;;;;5013789;28;20461;-55
2021/12/26 07:20:39;;;;;;;11.52;5.03;;;-0.20;99.90;;;;;;5014458;28;20060;-58
2021/12/26 07:23:05;;;;;;;17.42;6.90;;;-0.30;99.90;;;;;;5013011;28;20027;-58
2021/12/26 07:25:30;;;;;;;17.73;7.60;;;-0.30;99.90;;;;;;5014247;28;20026;-58
2021/12/26 07:27:56;;;;;;;12.48;5.68;;;-0.30;99.90;;;;;;5014645;28;20026;-56
2021/12/26 07:30:22;;;;;;;14.15;6.28;;;-0.10;99.90;;;;;;5029484;28;20080;-60
2021/12/26 07:32:48;;;;;;;15.05;8.02;;;0.20;99.90;;;;;;5014760;28;20025;-60
2021/12/26 07:35:13;;;;;;;14.18;6.07;;;0.20;99.90;;;;;;5012888;28;20485;-60
2021/12/26 07:37:39;;;;;;;13.13;6.30;;;0.20;99.90;;;;;;5013274;28;20081;-60
2021/12/26 07:40:06;;;;;;;12.60;5.30;;;0.30;99.90;;;;;;5012933;28;20121;-56
2021/12/26 07:42:32;;;;;;;9.70;5.38;;;0.40;99.90;;;;;;5012836;28;20389;-59
2021/12/26 07:44:57;;;;;;;9.93;5.22;;;0.60;99.90;;;;;;5014010;28;20022;-60
2021/12/26 07:47:23;;;;;;;11.80;5.65;;;0.80;99.90;;;;;;5013970;28;20032;-58
2021/12/26 07:49:49;;;;;;;11.45;5.72;;;0.90;99.90;;;;;;5012744;28;20073;-60
2021/12/26 07:52:19;;;;;;;11.13;5.63;;;0.90;99.90;;;;;;5012679;28;20099;-59
2021/12/26 07:54:45;;;;;;;12.35;6.28;;;1.00;99.90;;;;;;5014247;28;20022;-60
2021/12/26 07:57:13;;;;;;;13.15;5.80;;;1.00;99.90;;;;;;5029160;28;20030;-59
2021/12/26 07:59:38;;;;;;;17.58;6.90;;;0.90;99.90;;;;;;5013003;28;20101;-60
2021/12/26 08:02:05;;;;;;;12.13;5.50;;;1.10;99.90;;;;;;5013723;28;20068;-59
2021/12/26 08:04:31;;;;;;;10.43;4.50;;;1.30;99.90;;;;;;5012521;28;20026;-57
2021/12/26 08:06:58;;;;;;;11.48;5.40;;;1.20;99.90;;;;;;5012446;28;20026;-57
2021/12/26 08:09:24;;;;;;;9.98;5.85;;;1.20;99.90;;;;;;5012401;28;20041;-60
2021/12/26 08:11:50;;;;;;;13.43;5.05;;;1.30;99.90;;;;;;5013707;28;20104;-60
2021/12/26 08:14:16;;;;;;;11.25;5.93;;;1.40;99.90;;;;;;5013851;28;20468;-54
2021/12/26 08:16:41;;;;;;;12.63;6.07;;;1.30;99.90;;;;;;5013490;28;20037;-59
2021/12/26 08:19:07;;;;;;;11.00;4.82;;;0.90;99.90;;;;;;5013364;28;20500;-56
2021/12/26 08:21:34;;;;;;;16.30;7.25;;;0.90;99.90;;;;;;5012342;28;20022;-58
2021/12/26 08:24:00;;;;;;;16.50;7.88;;;0.90;99.90;;;;;;5013504;28;20037;-60
2021/12/26 08:26:26;;;;;;;14.23;6.95;;;1.00;99.90;;;;;;5022325;28;20039;-58
2021/12/26 08:28:56;;;;;;;10.85;5.45;;;1.10;99.90;;;;;;5032270;28;20025;-57
2021/12/26 08:31:22;;;;;;;12.85;5.53;;;0.90;99.90;;;;;;5031645;28;20025;-58
2021/12/26 08:33:48;;;;;;;10.80;5.57;;;1.00;99.90;;;;;;5032780;28;20026;-59
2021/12/26 08:36:17;;;;;;;10.60;5.78;;;0.90;99.90;;;;;;5033768;28;20021;-58
2021/12/26 08:38:43;;;;;;;12.43;5.38;;;0.90;99.90;;;;;;5037225;28;20104;-60
2021/12/26 08:41:09;;;;;;;12.55;5.57;;;1.00;99.90;;;;;;5037264;28;20459;-57
2021/12/26 08:43:34;;;;;;;10.35;6.03;;;1.00;99.90;;;;;;5037036;28;20081;-58
2021/12/26 08:46:00;;;;;;;10.77;5.60;;;1.10;99.90;;;;;;5035740;28;20028;-58
2021/12/26 08:48:26;;;;;;;13.57;6.38;;;1.10;99.90;;;;;;5035830;28;20022;-58
2021/12/26 08:50:55;;;;;;;12.07;6.35;;;1.00;99.90;;;;;;5036169;28;20033;-57
2021/12/26 08:53:26;;;;;;;12.23;6.50;;;1.10;99.90;;;;;;5037264;28;20472;-60
2021/12/26 08:55:52;;;;;;;11.80;5.45;;;1.20;99.90;;;;;;5035663;28;20032;-58
2021/12/26 08:58:18;;;;;;;103.68;41.85;;;1.00;99.90;;;;;;5036911;28;20100;-58
2021/12/26 09:00:44;;;;;;;21.88;11.02;;;0.90;99.90;;;;;;5035569;28;20109;-58
2021/12/26 09:03:09;;;;;;;57.70;25.95;;;0.90;99.90;;;;;;5035978;28;20083;-59
2021/12/26 09:05:35;;;;;;;44.90;33.90;;;1.00;99.90;;;;;;5036555;28;20478;-59
2021/12/26 09:08:06;;;;;;;59.60;31.60;;;1.10;99.90;;;;;;5035379;28;20029;-55
2021/12/26 09:10:32;;;;;;;24.03;13.77;;;1.10;99.90;;;;;;5036746;28;20064;-56
2021/12/26 09:12:58;;;;;;;58.05;29.50;;;1.20;99.90;;;;;;5036502;28;20025;-59
2021/12/26 09:15:24;;;;;;;26.55;20.00;;;1.40;99.90;;;;;;5036396;28;20037;-58
2021/12/26 09:17:50;;;;;;;39.60;20.45;;;1.60;99.90;;;;;;5034368;28;20021;-57
2021/12/26 09:20:16;;;;;;;16.35;7.75;;;1.70;99.90;;;;;;5016590;28;20101;-56
2021/12/26 09:22:42;;;;;;;29.10;18.83;;;1.60;99.90;;;;;;5015466;28;20026;-60
2021/12/26 09:25:09;;;;;;;59.20;47.83;;;1.50;99.90;;;;;;5030239;28;20025;-58
2021/12/26 09:27:35;;;;;;;134.88;80.70;;;1.60;99.90;;;;;;5036262;28;20457;-58
2021/12/26 09:30:03;;;;;;;112.10;56.88;;;1.60;99.90;;;;;;5036255;28;20056;-60
2021/12/26 09:32:29;;;;;;;25.92;12.23;;;1.80;99.90;;;;;;5036219;28;20045;-60
2021/12/26 09:34:54;;;;;;;13.93;7.60;;;1.90;99.90;;;;;;5036396;28;20022;-60
2021/12/26 09:37:20;;;;;;;20.25;9.32;;;2.00;99.90;;;;;;5036181;28;20025;-55
2021/12/26 09:39:46;;;;;;;18.08;10.48;;;1.80;99.90;;;;;;5036253;28;20052;-58
2021/12/26 09:42:11;;;;;;;18.95;7.85;;;2.00;99.90;;;;;;5034851;28;20029;-59
2021/12/26 09:44:38;;;;;;;14.40;7.40;;;2.10;99.90;;;;;;5015959;28;20045;-57
2021/12/26 09:47:05;;;;;;;28.23;21.17;;;2.30;99.90;;;;;;5014913;28;20041;-60
2021/12/26 09:49:31;;;;;;;19.55;11.45;;;2.40;99.90;;;;;;5014920;28;20061;-56
2021/12/26 09:51:57;;;;;;;14.55;8.07;;;2.20;99.90;;;;;;5016149;28;20041;-59
2021/12/26 09:54:23;;;;;;;22.17;10.38;;;2.10;99.90;;;;;;5015200;28;20030;-60
2021/12/26 09:56:48;;;;;;;17.98;7.75;;;2.10;99.90;;;;;;5015253;28;20388;-60
2021/12/26 09:59:17;;;;;;;18.05;7.10;;;2.50;99.90;;;;;;5014579;28;20480;-60
2021/12/26 10:01:47;;;;;;;17.52;10.25;;;2.10;99.90;;;;;;5014517;28;20105;-60
2021/12/26 10:04:20;;;;;;;14.40;7.65;;;1.80;99.90;;;;;;5028774;28;20116;-58
2021/12/26 10:06:48;;;;;;;14.60;6.93;;;1.90;99.90;;;;;;5034567;28;20116;-61
2021/12/26 10:09:14;;;;;;;16.00;7.80;;;2.20;99.90;;;;;;5035600;28;20021;-57
2021/12/26 10:11:45;;;;;;;18.27;7.32;;;2.40;99.90;;;;;;5034275;28;20025;-60
2021/12/26 10:14:16;;;;;;;16.65;7.60;;;2.30;99.90;;;;;;5034181;28;20021;-60
2021/12/26 10:16:55;;;;;;;15.80;8.15;;;2.20;99.90;;;;;;5029548;28;20089;-58
2021/12/26 10:19:21;;;;;;;15.75;7.15;;;1.90;99.90;;;;;;5015621;28;20029;-57
2021/12/26 10:21:47;;;;;;;18.40;7.80;;;1.80;99.90;;;;;;5015417;28;20022;-59
2021/12/26 10:24:25;;;;;;;13.73;7.30;;;2.00;99.90;;;;;;5015530;28;20056;-54
2021/12/26 10:26:57;;;;;;;15.43;7.05;;;2.50;99.90;;;;;;5014599;28;20022;-55
2021/12/26 10:29:33;;;;;;;17.33;7.93;;;2.40;99.90;;;;;;5014119;28;20018;-55
2021/12/26 10:32:19;;;;;;;15.80;7.38;;;2.10;99.90;;;;;;5016029;28;20041;-56
2021/12/26 10:34:46;;;;;;;15.73;8.60;;;1.90;99.90;;;;;;5015085;28;20028;-59
2021/12/26 10:37:25;;;;;;;16.60;7.07;;;1.60;99.90;;;;;;5014982;28;20026;-57
2021/12/26 10:39:52;;;;;;;18.67;7.57;;;1.50;99.90;;;;;;5030393;28;20022;-58
2021/12/26 10:42:42;;;;;;;16.58;8.20;;;1.60;99.90;;;;;;5013823;28;20169;-56
2021/12/26 10:45:10;;;;;;;15.10;7.20;;;1.80;99.90;;;;;;5030412;28;20022;-56
2021/12/26 10:47:39;;;;;;;16.70;6.90;;;2.00;99.90;;;;;;5014058;28;20457;-57
2021/12/26 10:50:15;;;;;;;15.27;9.00;;;2.10;99.90;;;;;;5014514;28;20029;-54
2021/12/26 10:52:50;;;;;;;14.07;8.52;;;2.40;99.90;;;;;;5013660;28;20068;-55
2021/12/26 10:55:19;;;;;;;14.25;7.47;;;2.50;99.90;;;;;;5014661;28;20061;-59
2021/12/26 10:57:47;;;;;;;16.73;7.68;;;2.70;99.90;;;;;;5013461;28;20056;-56
2021/12/26 11:00:17;;;;;;;14.45;6.93;;;2.70;99.90;;;;;;5015080;28;20042;-56
2021/12/26 11:02:49;;;;;;;13.63;7.53;;;2.40;99.90;;;;;;5014764;28;20025;-56
2021/12/26 11:05:22;;;;;;;;;;;2.30;99.90;;;;;;5015518;28;20084;-58
2021/12/26 11:07:49;;;;;;;14.70;7.15;;;2.30;99.90;;;;;;5014642;28;19905;-58
2021/12/26 11:10:18;;;;;;;16.95;7.97;;;2.50;99.90;;;;;;5030680;28;20022;-54
2021/12/26 11:12:47;;;;;;;15.38;8.20;;;2.60;99.90;;;;;;5029769;28;20034;-56
2021/12/26 11:15:15;;;;;;;14.77;7.72;;;2.70;99.90;;;;;;5013723;28;20025;-58
2021/12/26 11:18:03;;;;;;;18.65;9.35;;;2.70;99.90;;;;;;5013490;28;20018;-57
2021/12/26 11:20:48;;;;;;;16.00;7.50;;;2.70;99.90;;;;;;5014378;28;20030;-56
2021/12/26 11:23:23;;;;;;;16.85;7.78;;;2.40;99.90;;;;;;5013438;28;20021;-59
2021/12/26 11:26:03;;;;;;;18.42;8.95;;;2.20;99.90;;;;;;5013047;28;20033;-59
2021/12/26 11:28:32;;;;;;;15.63;7.40;;;2.10;99.90;;;;;;5013631;28;20034;-59
2021/12/26 11:31:01;;;;;;;20.80;9.48;;;2.30;99.90;;;;;;5014439;28;20026;-62
2021/12/26 11:33:27;;;;;;;17.58;8.63;;;2.20;99.90;;;;;;5014243;28;20053;-56
2021/12/26 11:35:54;;;;;;;15.38;8.18;;;2.00;99.90;;;;;;5012967;28;20018;-57
2021/12/26 11:38:22;;;;;;;20.58;9.35;;;2.00;99.90;;;;;;5013274;28;20030;-59
2021/12/26 11:40:55;;;;;;;14.63;7.72;;;2.20;99.90;;;;;;5014244;28;20093;-58
2021/12/26 11:43:38;;;;;;;17.25;8.48;;;2.20;99.90;;;;;;5014058;28;20064;-58
2021/12/26 11:46:10;;;;;;;21.52;7.75;;;2.20;99.90;;;;;;5013990;28;20105;-60
2021/12/26 11:49:12;;;;;;;15.15;7.20;;;2.40;99.90;;;;;;5014164;28;20108;-60
2021/12/26 11:51:50;;;;;;;15.95;7.82;;;2.70;99.90;;;;;;5014258;28;20030;-56
2021/12/26 11:54:53;;;;;;;15.65;7.65;;;3.00;99.90;;;;;;5012713;28;20038;-58
2021/12/26 11:57:51;;;;;;;14.75;7.68;;;2.80;99.90;;;;;;5012954;28;20022;-60
2021/12/26 12:00:19;;;;;;;21.20;8.43;;;2.60;99.90;;;;;;5012637;28;20029;-60
2021/12/26 12:02:48;;;;;;;19.45;8.95;;;3.00;99.90;;;;;;5013815;28;20120;-58
2021/12/26 12:05:23;;;;;;;16.73;8.00;;;3.30;99.90;;;;;;5013829;28;20013;-56
2021/12/26 12:07:54;;;;;;;15.00;8.07;;;3.60;99.90;;;;;;5013690;28;20439;-60
2021/12/26 12:10:42;;;;;;;18.95;8.40;;;3.40;99.90;;;;;;5013003;28;20030;-58
2021/12/26 12:13:43;;;;;;;15.88;7.40;;;3.30;99.90;;;;;;5013558;28;20450;-60
2021/12/26 12:16:11;;;;;;;15.90;7.43;;;3.40;99.90;;;;;;5014173;28;20528;-57
2021/12/26 12:18:44;;;;;;;17.33;7.82;;;3.50;99.90;;;;;;5013868;28;20054;-60
2021/12/26 12:21:15;;;;;;;15.90;7.85;;;3.70;99.90;;;;;;5013765;28;20030;-60
2021/12/26 12:24:04;;;;;;;15.75;7.03;;;3.30;99.90;;;;;;5013818;28;20037;-54
2021/12/26 12:26:50;;;;;;;16.58;8.27;;;3.10;99.90;;;;;;5013548;28;20056;-58
2021/12/26 12:29:28;;;;;;;20.55;9.05;;;3.10;99.90;;;;;;5013732;28;20022;-58
2021/12/26 12:32:06;;;;;;;17.13;8.63;;;3.10;99.90;;;;;;5012518;28;20391;-60
2021/12/26 12:34:52;;;;;;;16.30;8.18;;;3.10;99.90;;;;;;5013440;28;20097;-59
2021/12/26 12:37:33;;;;;;;15.50;7.25;;;3.10;99.90;;;;;;5013596;28;20109;-60
2021/12/26 12:40:29;;;;;;;16.55;7.55;;;3.30;99.90;;;;;;5013440;28;20024;-59
2021/12/26 12:43:07;;;;;;;17.83;7.68;;;3.30;99.90;;;;;;5013437;28;20024;-60
2021/12/26 12:45:58;;;;;;;16.65;8.77;;;3.20;99.90;;;;;;5013751;28;20105;-60
2021/12/26 12:48:59;;;;;;;25.80;11.07;;;3.30;99.90;;;;;;5012123;28;20026;-59
2021/12/26 12:51:27;;;;;;;44.72;23.25;;;3.20;99.90;;;;;;5013279;28;20066;-59
2021/12/26 12:53:55;;;;;;;43.35;21.55;;;3.40;99.90;;;;;;5013174;28;20060;-58
2021/12/26 12:56:30;;;;;;;27.95;12.40;;;3.50;99.90;;;;;;5013160;28;20019;-58
2021/12/26 12:59:14;;;;;;;22.17;11.20;;;3.50;99.90;;;;;;5011960;28;20022;-59
2021/12/26 13:01:42;;;;;;;39.53;20.77;;;3.70;99.90;;;;;;5012001;28;20026;-60